sensor_id;sensor_type;location;lat;lon;timestamp;P1;P2;P0
77239;PMS7003;66258;53.170;-2.240;2023-09-19T00:02:13;25.25;25.25;22.00
77239;PMS7003;66258;53.170;-2.240;2023-09-19T00:04:41;25.75;24.25;20.50
77239;PMS7003;66258;53.170;-2.240;2023-09-19T00:07:08;8.50;8.50;4.50
77239;PMS7003;66258;53.170;-2.240;2023-09-19T00:09:36;9.25;9.25;8.50
77239;PMS7003;66258;53.170;-2.240;2023-09-19T00:12:03;18.00;16.50;14.25
77239;PMS7003;66258;53.170;-2.240;2023-09-19T00:14:31;12.67;10.33;8.00
77239;PMS7003;66258;53.170;-2.240;2023-09-19T00:17:24;14.00;14.00;10.00
77239;PMS7003;66258;53.170;-2.240;2023-09-19T00:19:51;10.25;9.50;8.00
77239;PMS7003;66258;53.170;-2.240;2023-09-19T00:22:18;5.00;5.00;4.25
77239;PMS7003;66258;53.170;-2.240;2023-09-19T00:24:45;4.50;4.50;3.25
77239;PMS7003;66258;53.170;-2.240;2023-09-19T00:27:12;11.00;10.00;7.00
77239;PMS7003;66258;53.170;-2.240;2023-09-19T00:29:42;28.25;20.50;17.25
77239;PMS7003;66258;53.170;-2.240;2023-09-19T00:32:09;9.67;9.67;7.67
77239;PMS7003;66258;53.170;-2.240;2023-09-19T00:34:37;7.50;5.75;3.75
77239;PMS7003;66258;53.170;-2.240;2023-09-19T00:37:04;14.33;10.33;6.67
77239;PMS7003;66258;53.170;-2.240;2023-09-19T00:39:31;6.75;6.75;5.75
77239;PMS7003;66258;53.170;-2.240;2023-09-19T00:42:22;12.00;11.75;11.25
77239;PMS7003;66258;53.170;-2.240;2023-09-19T00:44:49;12.50;5.75;2.00
77239;PMS7003;66258;53.170;-2.240;2023-09-19T00:47:16;6.75;3.50;1.00
77239;PMS7003;66258;53.170;-2.240;2023-09-19T00:49:47;6.00;5.00;2.00
77239;PMS7003;66258;53.170;-2.240;2023-09-19T00:52:14;5.00;2.50;1.00
77239;PMS7003;66258;53.170;-2.240;2023-09-19T00:54:42;2.75;2.75;1.00
77239;PMS7003;66258;53.170;-2.240;2023-09-19T00:57:09;12.25;9.25;4.00
77239;PMS7003;66258;53.170;-2.240;2023-09-19T00:59:37;7.50;4.75;2.00
77239;PMS7003;66258;53.170;-2.240;2023-09-19T01:02:28;5.00;3.75;1.00
77239;PMS7003;66258;53.170;-2.240;2023-09-19T01:05:20;4.25;2.25;1.00
77239;PMS7003;66258;53.170;-2.240;2023-09-19T01:08:10;7.50;5.00;1.00
77239;PMS7003;66258;53.170;-2.240;2023-09-19T01:10:38;3.00;3.00;1.75
77239;PMS7003;66258;53.170;-2.240;2023-09-19T01:13:21;5.50;3.00;1.50
77239;PMS7003;66258;53.170;-2.240;2023-09-19T01:15:55;7.75;5.25;1.25
77239;PMS7003;66258;53.170;-2.240;2023-09-19T01:18:33;2.75;2.75;1.50
77239;PMS7003;66258;53.170;-2.240;2023-09-19T01:21:11;4.25;1.00;0.00
77239;PMS7003;66258;53.170;-2.240;2023-09-19T01:23:51;2.75;2.75;1.75
77239;PMS7003;66258;53.170;-2.240;2023-09-19T01:26:45;4.00;3.50;1.00
77239;PMS7003;66258;53.170;-2.240;2023-09-19T01:30:03;9.00;6.25;3.75
77239;PMS7003;66258;53.170;-2.240;2023-09-19T01:32:35;4.50;4.50;1.50
77239;PMS7003;66258;53.170;-2.240;2023-09-19T01:35:03;3.50;3.50;1.25
77239;PMS7003;66258;53.170;-2.240;2023-09-19T01:37:30;7.75;5.75;2.00
77239;PMS7003;66258;53.170;-2.240;2023-09-19T01:39:58;3.00;3.00;1.50
77239;PMS7003;66258;53.170;-2.240;2023-09-19T01:42:29;6.00;6.00;3.75
77239;PMS7003;66258;53.170;-2.240;2023-09-19T01:45:07;5.00;3.75;1.75
77239;PMS7003;66258;53.170;-2.240;2023-09-19T01:47:41;5.00;5.00;1.00
77239;PMS7003;66258;53.170;-2.240;2023-09-19T01:50:17;6.75;6.75;1.75
77239;PMS7003;66258;53.170;-2.240;2023-09-19T01:52:54;3.50;3.00;1.00
77239;PMS7003;66258;53.170;-2.240;2023-09-19T01:55:26;2.00;2.00;1.00
77239;PMS7003;66258;53.170;-2.240;2023-09-19T01:57:58;2.50;2.50;0.75
77239;PMS7003;66258;53.170;-2.240;2023-09-19T02:00:37;5.00;5.00;2.00
77239;PMS7003;66258;53.170;-2.240;2023-09-19T02:03:06;5.00;4.25;1.50
77239;PMS7003;66258;53.170;-2.240;2023-09-19T02:05:35;5.75;4.00;2.00
77239;PMS7003;66258;53.170;-2.240;2023-09-19T02:08:26;7.75;6.75;2.00
77239;PMS7003;66258;53.170;-2.240;2023-09-19T02:10:57;7.00;5.25;2.00
77239;PMS7003;66258;53.170;-2.240;2023-09-19T02:13:24;7.50;5.00;2.25
77239;PMS7003;66258;53.170;-2.240;2023-09-19T02:15:53;4.00;4.00;1.50
77239;PMS7003;66258;53.170;-2.240;2023-09-19T02:18:44;8.25;5.00;1.25
77239;PMS7003;66258;53.170;-2.240;2023-09-19T02:21:11;7.25;4.00;1.00
77239;PMS7003;66258;53.170;-2.240;2023-09-19T02:23:39;9.25;8.25;1.75
77239;PMS7003;66258;53.170;-2.240;2023-09-19T02:26:06;4.75;4.75;1.50
77239;PMS7003;66258;53.170;-2.240;2023-09-19T02:28:33;5.75;3.50;1.00
77239;PMS7003;66258;53.170;-2.240;2023-09-19T02:31:05;8.00;4.00;0.75
77239;PMS7003;66258;53.170;-2.240;2023-09-19T02:33:32;7.00;4.25;3.00
77239;PMS7003;66258;53.170;-2.240;2023-09-19T02:35:59;9.00;7.00;3.75
77239;PMS7003;66258;53.170;-2.240;2023-09-19T02:38:26;5.00;5.00;0.25
77239;PMS7003;66258;53.170;-2.240;2023-09-19T02:40:53;6.50;2.75;0.00
77239;PMS7003;66258;53.170;-2.240;2023-09-19T02:43:20;4.00;3.00;0.00
77239;PMS7003;66258;53.170;-2.240;2023-09-19T02:45:47;7.75;4.50;1.50
77239;PMS7003;66258;53.170;-2.240;2023-09-19T02:48:18;14.00;12.50;9.75
77239;PMS7003;66258;53.170;-2.240;2023-09-19T02:50:45;4.75;4.75;1.75
77239;PMS7003;66258;53.170;-2.240;2023-09-19T02:53:12;13.00;8.33;5.67
77239;PMS7003;66258;53.170;-2.240;2023-09-19T02:55:39;9.75;9.75;5.75
77239;PMS7003;66258;53.170;-2.240;2023-09-19T02:58:30;5.75;5.00;3.25
77239;PMS7003;66258;53.170;-2.240;2023-09-19T03:01:20;3.00;3.00;0.50
77239;PMS7003;66258;53.170;-2.240;2023-09-19T03:03:49;5.75;5.75;2.75
77239;PMS7003;66258;53.170;-2.240;2023-09-19T03:06:40;11.00;9.00;3.75
77239;PMS7003;66258;53.170;-2.240;2023-09-19T03:09:07;18.50;16.50;14.25
77239;PMS7003;66258;53.170;-2.240;2023-09-19T03:11:34;5.00;5.00;2.00
77239;PMS7003;66258;53.170;-2.240;2023-09-19T03:14:00;14.33;13.33;10.00
77239;PMS7003;66258;53.170;-2.240;2023-09-19T03:16:51;7.75;6.00;4.25
77239;PMS7003;66258;53.170;-2.240;2023-09-19T03:19:20;11.67;10.00;4.00
77239;PMS7003;66258;53.170;-2.240;2023-09-19T03:21:47;7.75;6.00;4.50
77239;PMS7003;66258;53.170;-2.240;2023-09-19T03:24:14;18.67;15.67;8.00
77239;PMS7003;66258;53.170;-2.240;2023-09-19T03:27:05;11.33;10.33;4.67
77239;PMS7003;66258;53.170;-2.240;2023-09-19T03:29:32;20.50;18.50;15.50
77239;PMS7003;66258;53.170;-2.240;2023-09-19T03:32:00;9.00;9.00;6.00
77239;PMS7003;66258;53.170;-2.240;2023-09-19T03:34:29;23.00;20.00;17.75
77239;PMS7003;66258;53.170;-2.240;2023-09-19T03:36:55;18.50;15.50;9.75
77239;PMS7003;66258;53.170;-2.240;2023-09-19T03:39:22;12.00;12.00;10.00
77239;PMS7003;66258;53.170;-2.240;2023-09-19T03:41:49;10.00;10.00;6.00
77239;PMS7003;66258;53.170;-2.240;2023-09-19T03:44:40;13.00;10.00;5.67
77239;PMS7003;66258;53.170;-2.240;2023-09-19T03:47:06;11.25;11.25;9.50
77239;PMS7003;66258;53.170;-2.240;2023-09-19T03:49:35;10.67;10.67;9.00
77239;PMS7003;66258;53.170;-2.240;2023-09-19T03:52:02;19.75;18.75;15.75
77239;PMS7003;66258;53.170;-2.240;2023-09-19T03:54:53;16.00;16.00;14.75
77239;PMS7003;66258;53.170;-2.240;2023-09-19T03:57:48;28.00;24.75;20.50
77239;PMS7003;66258;53.170;-2.240;2023-09-19T04:00:15;38.00;33.75;26.50
77239;PMS7003;66258;53.170;-2.240;2023-09-19T04:02:42;50.25;39.75;30.25
77239;PMS7003;66258;53.170;-2.240;2023-09-19T04:05:16;12.75;12.75;8.75
77239;PMS7003;66258;53.170;-2.240;2023-09-19T04:07:46;27.25;27.00;23.25
77239;PMS7003;66258;53.170;-2.240;2023-09-19T04:10:14;13.00;13.00;9.00
77239;PMS7003;66258;53.170;-2.240;2023-09-19T04:12:49;7.67;5.33;4.00
77239;PMS7003;66258;53.170;-2.240;2023-09-19T04:15:17;14.75;14.75;13.00
77239;PMS7003;66258;53.170;-2.240;2023-09-19T04:17:44;9.00;6.00;2.00
77239;PMS7003;66258;53.170;-2.240;2023-09-19T04:20:11;15.50;13.50;11.25
77239;PMS7003;66258;53.170;-2.240;2023-09-19T04:22:40;8.00;8.00;4.33
77239;PMS7003;66258;53.170;-2.240;2023-09-19T04:25:07;9.33;9.33;6.33
77239;PMS7003;66258;53.170;-2.240;2023-09-19T04:27:35;17.50;16.00;12.75
77239;PMS7003;66258;53.170;-2.240;2023-09-19T04:30:26;9.33;8.67;6.33
77239;PMS7003;66258;53.170;-2.240;2023-09-19T04:32:53;11.50;10.00;8.50
77239;PMS7003;66258;53.170;-2.240;2023-09-19T04:35:21;40.00;35.50;28.50
77239;PMS7003;66258;53.170;-2.240;2023-09-19T04:37:50;27.50;26.25;22.25
77239;PMS7003;66258;53.170;-2.240;2023-09-19T04:40:41;38.25;33.00;25.75
77239;PMS7003;66258;53.170;-2.240;2023-09-19T04:43:31;58.00;47.00;37.50
77239;PMS7003;66258;53.170;-2.240;2023-09-19T04:46:22;40.00;36.25;29.50
77239;PMS7003;66258;53.170;-2.240;2023-09-19T04:49:13;55.75;46.25;37.50
77239;PMS7003;66258;53.170;-2.240;2023-09-19T04:51:40;59.00;49.00;41.00
77239;PMS7003;66258;53.170;-2.240;2023-09-19T04:54:11;62.25;51.25;43.75
77239;PMS7003;66258;53.170;-2.240;2023-09-19T04:56:38;67.25;57.00;54.00
77239;PMS7003;66258;53.170;-2.240;2023-09-19T04:59:05;719.67;719.33;713.67
77239;PMS7003;66258;53.170;-2.240;2023-09-19T05:01:33;403.25;401.50;392.25
77239;PMS7003;66258;53.170;-2.240;2023-09-19T05:04:00;79.25;77.50;73.75
77239;PMS7003;66258;53.170;-2.240;2023-09-19T05:06:27;79.25;76.75;70.00
77239;PMS7003;66258;53.170;-2.240;2023-09-19T05:08:54;210.20;205.40;192.20
77239;PMS7003;66258;53.170;-2.240;2023-09-19T05:11:22;75.00;68.75;59.00
77239;PMS7003;66258;53.170;-2.240;2023-09-19T05:14:13;73.60;63.80;53.40
77239;PMS7003;66258;53.170;-2.240;2023-09-19T05:16:40;69.80;61.00;55.60
77239;PMS7003;66258;53.170;-2.240;2023-09-19T05:19:07;737.75;733.75;723.00
77239;PMS7003;66258;53.170;-2.240;2023-09-19T05:21:34;89.00;87.80;84.00
77239;PMS7003;66258;53.170;-2.240;2023-09-19T05:24:25;521.40;517.40;504.20
77239;PMS7003;66258;53.170;-2.240;2023-09-19T05:26:55;345.75;308.50;284.50
77239;PMS7003;66258;53.170;-2.240;2023-09-19T05:29:23;402.20;387.80;364.20
77239;PMS7003;66258;53.170;-2.240;2023-09-19T05:31:50;658.60;640.00;623.40
77239;PMS7003;66258;53.170;-2.240;2023-09-19T05:34:17;424.20;388.80;364.80
77239;PMS7003;66258;53.170;-2.240;2023-09-19T05:36:45;378.40;373.40;354.00
77239;PMS7003;66258;53.170;-2.240;2023-09-19T05:39:13;384.50;382.50;363.25
77239;PMS7003;66258;53.170;-2.240;2023-09-19T05:41:41;66.40;52.20;31.80
77239;PMS7003;66258;53.170;-2.240;2023-09-19T05:44:09;583.00;575.75;540.00
77239;PMS7003;66258;53.170;-2.240;2023-09-19T05:46:36;162.40;130.80;100.40
77239;PMS7003;66258;53.170;-2.240;2023-09-19T05:49:03;982.00;972.40;949.40
77239;PMS7003;66258;53.170;-2.240;2023-09-19T05:51:30;85.20;83.80;59.60
77239;PMS7003;66258;53.170;-2.240;2023-09-19T05:53:59;442.20;439.00;409.60
77239;PMS7003;66258;53.170;-2.240;2023-09-19T05:56:26;405.20;402.40;377.00
77239;PMS7003;66258;53.170;-2.240;2023-09-19T05:58:53;422.00;416.50;388.50
77239;PMS7003;66258;53.170;-2.240;2023-09-19T06:01:23;312.75;309.00;284.25
77239;PMS7003;66258;53.170;-2.240;2023-09-19T06:03:50;394.50;391.50;379.00
77239;PMS7003;66258;53.170;-2.240;2023-09-19T06:06:19;78.40;58.80;24.20
77239;PMS7003;66258;53.170;-2.240;2023-09-19T06:08:46;336.00;311.80;289.00
77239;PMS7003;66258;53.170;-2.240;2023-09-19T06:11:13;86.40;86.40;69.40
77239;PMS7003;66258;53.170;-2.240;2023-09-19T06:13:40;400.40;394.40;376.20
77239;PMS7003;66258;53.170;-2.240;2023-09-19T06:16:07;77.00;70.60;55.40
77239;PMS7003;66258;53.170;-2.240;2023-09-19T06:18:36;1767.00;1764.50;1752.00
77239;PMS7003;66258;53.170;-2.240;2023-09-19T06:21:27;240.25;237.00;210.75
77239;PMS7003;66258;53.170;-2.240;2023-09-19T06:23:54;1582.60;1565.40;1548.60
77239;PMS7003;66258;53.170;-2.240;2023-09-19T06:26:21;1078.75;1051.25;1018.25
77239;PMS7003;66258;53.170;-2.240;2023-09-19T06:28:48;407.25;392.75;357.75
77239;PMS7003;66258;53.170;-2.240;2023-09-19T06:31:15;482.00;457.40;430.00
77239;PMS7003;66258;53.170;-2.240;2023-09-19T06:33:44;1770.00;1749.50;1728.75
77239;PMS7003;66258;53.170;-2.240;2023-09-19T06:36:11;724.50;711.50;693.25
77239;PMS7003;66258;53.170;-2.240;2023-09-19T06:38:39;315.50;309.00;286.50
77239;PMS7003;66258;53.170;-2.240;2023-09-19T06:41:07;1182.00;1173.25;1156.75
77239;PMS7003;66258;53.170;-2.240;2023-09-19T06:43:33;747.80;729.80;713.20
77239;PMS7003;66258;53.170;-2.240;2023-09-19T06:46:25;1024.40;1013.80;997.60
77239;PMS7003;66258;53.170;-2.240;2023-09-19T06:48:54;62.00;50.25;39.25
77239;PMS7003;66258;53.170;-2.240;2023-09-19T06:51:21;1102.75;1077.25;1059.25
77239;PMS7003;66258;53.170;-2.240;2023-09-19T06:53:48;62.00;49.25;35.00
77239;PMS7003;66258;53.170;-2.240;2023-09-19T06:56:17;55.75;42.50;26.50
77239;PMS7003;66258;53.170;-2.240;2023-09-19T06:58:44;372.00;365.00;354.80
77239;PMS7003;66258;53.170;-2.240;2023-09-19T07:01:12;141.75;132.00;122.00
77239;PMS7003;66258;53.170;-2.240;2023-09-19T07:03:38;61.33;50.67;40.67
77239;PMS7003;66258;53.170;-2.240;2023-09-19T07:06:07;649.50;648.50;640.50
77239;PMS7003;66258;53.170;-2.240;2023-09-19T07:08:33;56.25;46.50;38.00
77239;PMS7003;66258;53.170;-2.240;2023-09-19T07:11:00;60.33;50.33;41.67
77239;PMS7003;66258;53.170;-2.240;2023-09-19T07:13:29;494.75;490.00;479.75
77239;PMS7003;66258;53.170;-2.240;2023-09-19T07:16:19;78.00;59.25;46.75
77239;PMS7003;66258;53.170;-2.240;2023-09-19T07:18:46;66.50;52.25;44.00
77239;PMS7003;66258;53.170;-2.240;2023-09-19T07:21:16;39.50;36.00;29.25
77239;PMS7003;66258;53.170;-2.240;2023-09-19T07:23:42;36.75;34.00;28.25
77239;PMS7003;66258;53.170;-2.240;2023-09-19T07:26:10;8.00;8.00;6.00
77239;PMS7003;66258;53.170;-2.240;2023-09-19T07:28:36;8.75;6.00;1.25
77239;PMS7003;66258;53.170;-2.240;2023-09-19T07:31:07;19.25;16.25;11.50
77239;PMS7003;66258;53.170;-2.240;2023-09-19T07:33:34;28.75;28.75;20.00
77239;PMS7003;66258;53.170;-2.240;2023-09-19T07:36:01;20.25;15.00;7.50
77239;PMS7003;66258;53.170;-2.240;2023-09-19T07:38:29;3.33;3.33;0.33
77239;PMS7003;66258;53.170;-2.240;2023-09-19T07:41:00;36.25;32.50;24.00
77239;PMS7003;66258;53.170;-2.240;2023-09-19T07:43:27;18.75;14.50;9.25
77239;PMS7003;66258;53.170;-2.240;2023-09-19T07:45:54;11.00;10.33;8.00
77239;PMS7003;66258;53.170;-2.240;2023-09-19T07:48:21;3.25;2.25;1.50
77239;PMS7003;66258;53.170;-2.240;2023-09-19T07:50:48;58.50;46.25;34.75
77239;PMS7003;66258;53.170;-2.240;2023-09-19T07:53:17;48.75;39.75;29.25
77239;PMS7003;66258;53.170;-2.240;2023-09-19T07:56:09;22.75;22.75;20.00
77239;PMS7003;66258;53.170;-2.240;2023-09-19T07:58:40;47.25;39.75;31.50
77239;PMS7003;66258;53.170;-2.240;2023-09-19T08:01:07;28.33;24.67;22.00
77239;PMS7003;66258;53.170;-2.240;2023-09-19T08:03:35;221.00;214.50;206.00
77239;PMS7003;66258;53.170;-2.240;2023-09-19T08:06:02;61.00;48.00;36.33
77239;PMS7003;66258;53.170;-2.240;2023-09-19T08:08:29;41.00;35.25;27.75
77239;PMS7003;66258;53.170;-2.240;2023-09-19T08:10:56;35.50;33.50;27.25
77239;PMS7003;66258;53.170;-2.240;2023-09-19T08:13:25;22.25;22.25;19.50
77239;PMS7003;66258;53.170;-2.240;2023-09-19T08:15:52;39.75;36.25;29.00
77239;PMS7003;66258;53.170;-2.240;2023-09-19T08:18:19;3.75;3.75;1.50
77239;PMS7003;66258;53.170;-2.240;2023-09-19T08:20:50;2.25;1.75;1.50
77239;PMS7003;66258;53.170;-2.240;2023-09-19T08:23:20;32.75;30.75;24.75
77239;PMS7003;66258;53.170;-2.240;2023-09-19T08:25:48;280.50;278.50;272.50
77239;PMS7003;66258;53.170;-2.240;2023-09-19T08:28:16;38.75;32.00;22.25
77239;PMS7003;66258;53.170;-2.240;2023-09-19T08:30:45;52.00;41.75;31.50
77239;PMS7003;66258;53.170;-2.240;2023-09-19T08:33:12;53.75;42.75;32.50
77239;PMS7003;66258;53.170;-2.240;2023-09-19T08:35:39;51.00;40.25;30.00
77239;PMS7003;66258;53.170;-2.240;2023-09-19T08:38:06;18.00;18.00;15.50
77239;PMS7003;66258;53.170;-2.240;2023-09-19T08:40:36;271.50;269.25;265.75
77239;PMS7003;66258;53.170;-2.240;2023-09-19T08:43:04;9.00;9.00;7.00
77239;PMS7003;66258;53.170;-2.240;2023-09-19T08:45:31;38.25;34.00;28.25
77239;PMS7003;66258;53.170;-2.240;2023-09-19T08:48:15;377.40;368.60;363.40
77239;PMS7003;66258;53.170;-2.240;2023-09-19T08:50:49;71.25;61.25;54.25
77239;PMS7003;66258;53.170;-2.240;2023-09-19T08:53:20;36.00;33.50;28.50
77239;PMS7003;66258;53.170;-2.240;2023-09-19T08:55:53;59.50;49.50;44.75
77239;PMS7003;66258;53.170;-2.240;2023-09-19T08:58:20;38.75;31.00;25.25
77239;PMS7003;66258;53.170;-2.240;2023-09-19T09:00:52;26.25;24.50;21.25
77239;PMS7003;66258;53.170;-2.240;2023-09-19T09:03:22;1.25;1.25;1.00
77239;PMS7003;66258;53.170;-2.240;2023-09-19T09:05:49;21.50;21.50;19.25
77239;PMS7003;66258;53.170;-2.240;2023-09-19T09:08:18;44.25;32.00;24.50
77239;PMS7003;66258;53.170;-2.240;2023-09-19T09:10:47;22.25;22.25;18.50
77239;PMS7003;66258;53.170;-2.240;2023-09-19T09:13:14;14.75;14.75;14.25
77239;PMS7003;66258;53.170;-2.240;2023-09-19T09:15:41;36.25;30.75;23.50
77239;PMS7003;66258;53.170;-2.240;2023-09-19T09:18:08;61.00;48.00;39.25
77239;PMS7003;66258;53.170;-2.240;2023-09-19T11:05:13;633.00;619.50;608.75
77239;PMS7003;66258;53.170;-2.240;2023-09-19T11:07:59;132.80;117.40;99.80
77239;PMS7003;66258;53.170;-2.240;2023-09-19T11:13:24;471.25;460.50;440.25
77239;PMS7003;66258;53.170;-2.240;2023-09-19T11:18:51;65.20;54.00;43.80
77239;PMS7003;66258;53.170;-2.240;2023-09-19T11:24:28;353.40;347.80;303.80
77239;PMS7003;66258;53.170;-2.240;2023-09-19T11:27:13;75.50;70.00;43.25
77239;PMS7003;66258;53.170;-2.240;2023-09-19T11:29:41;291.20;276.00;222.20
77239;PMS7003;66258;53.170;-2.240;2023-09-19T11:32:08;422.80;401.00;359.60
77239;PMS7003;66258;53.170;-2.240;2023-09-19T11:34:40;1227.60;1205.60;1152.00
77239;PMS7003;66258;53.170;-2.240;2023-09-19T11:40:28;1495.40;1475.60;1423.60
77239;PMS7003;66258;53.170;-2.240;2023-09-19T11:42:55;2641.80;2632.60;2611.00
77239;PMS7003;66258;53.170;-2.240;2023-09-19T11:48:27;1950.20;1946.40;1886.40
77239;PMS7003;66258;53.170;-2.240;2023-09-19T11:50:56;3167.80;3166.80;3160.60
77239;PMS7003;66258;53.170;-2.240;2023-09-19T11:53:24;1882.40;1873.20;1812.00
77239;PMS7003;66258;53.170;-2.240;2023-09-19T11:55:59;1998.20;1984.20;1950.40
77239;PMS7003;66258;53.170;-2.240;2023-09-19T11:58:27;2079.00;2074.20;2017.00
77239;PMS7003;66258;53.170;-2.240;2023-09-19T12:00:54;1692.20;1667.00;1629.80
77239;PMS7003;66258;53.170;-2.240;2023-09-19T12:03:22;3109.60;3106.00;3096.00
77239;PMS7003;66258;53.170;-2.240;2023-09-19T12:05:50;1988.60;1968.40;1950.00
77239;PMS7003;66258;53.170;-2.240;2023-09-19T12:08:17;3242.80;3242.80;3237.20
77239;PMS7003;66258;53.170;-2.240;2023-09-19T12:10:45;2846.60;2839.40;2823.40
77239;PMS7003;66258;53.170;-2.240;2023-09-19T12:13:17;2715.20;2704.80;2694.20
77239;PMS7003;66258;53.170;-2.240;2023-09-19T12:15:45;1723.40;1700.40;1672.80
77239;PMS7003;66258;53.170;-2.240;2023-09-19T12:18:25;2661.60;2650.00;2630.60
77239;PMS7003;66258;53.170;-2.240;2023-09-19T12:20:53;1489.60;1455.20;1421.60
77239;PMS7003;66258;53.170;-2.240;2023-09-19T12:23:20;1364.00;1344.40;1280.20
77239;PMS7003;66258;53.170;-2.240;2023-09-19T12:25:47;1423.80;1392.40;1351.40
77239;PMS7003;66258;53.170;-2.240;2023-09-19T12:28:16;2264.00;2257.80;2221.60
77239;PMS7003;66258;53.170;-2.240;2023-09-19T12:30:44;1162.00;1144.20;1082.40
77239;PMS7003;66258;53.170;-2.240;2023-09-19T12:33:15;1616.20;1599.80;1552.00
77239;PMS7003;66258;53.170;-2.240;2023-09-19T12:35:42;1106.00;1093.60;1014.20
77239;PMS7003;66258;53.170;-2.240;2023-09-19T12:38:10;1221.20;1208.60;1156.40
77239;PMS7003;66258;53.170;-2.240;2023-09-19T12:40:37;1265.00;1258.80;1217.80
77239;PMS7003;66258;53.170;-2.240;2023-09-19T12:43:05;1474.20;1443.40;1413.40
77239;PMS7003;66258;53.170;-2.240;2023-09-19T12:45:35;1012.80;1004.00;962.20
77239;PMS7003;66258;53.170;-2.240;2023-09-19T12:48:18;1089.60;1070.40;1020.40
77239;PMS7003;66258;53.170;-2.240;2023-09-19T12:51:02;1077.40;1072.00;1023.80
77239;PMS7003;66258;53.170;-2.240;2023-09-19T12:53:29;742.20;733.20;696.40
77239;PMS7003;66258;53.170;-2.240;2023-09-19T12:56:21;149.40;144.00;101.20
77239;PMS7003;66258;53.170;-2.240;2023-09-19T12:59:12;335.20;316.80;291.80
77239;PMS7003;66258;53.170;-2.240;2023-09-19T13:01:42;533.80;526.20;502.40
77239;PMS7003;66258;53.170;-2.240;2023-09-19T13:04:10;389.60;373.80;349.00
77239;PMS7003;66258;53.170;-2.240;2023-09-19T13:06:39;1061.60;1059.40;1033.00
77239;PMS7003;66258;53.170;-2.240;2023-09-19T13:09:08;395.75;386.75;362.25
77239;PMS7003;66258;53.170;-2.240;2023-09-19T13:11:36;133.40;119.20;101.80
77239;PMS7003;66258;53.170;-2.240;2023-09-19T13:14:14;252.40;242.60;229.40
77239;PMS7003;66258;53.170;-2.240;2023-09-19T13:16:55;376.20;371.60;352.60
77239;PMS7003;66258;53.170;-2.240;2023-09-19T13:19:36;45.60;34.20;16.60
77239;PMS7003;66258;53.170;-2.240;2023-09-19T13:22:38;65.20;48.20;33.60
77239;PMS7003;66258;53.170;-2.240;2023-09-19T13:25:07;361.75;358.75;353.00
77239;PMS7003;66258;53.170;-2.240;2023-09-19T13:27:35;37.50;33.75;28.00
77239;PMS7003;66258;53.170;-2.240;2023-09-19T13:30:02;30.25;28.25;23.50
77239;PMS7003;66258;53.170;-2.240;2023-09-19T13:32:31;605.50;603.00;599.25
77239;PMS7003;66258;53.170;-2.240;2023-09-19T13:34:58;33.25;28.75;21.50
77239;PMS7003;66258;53.170;-2.240;2023-09-19T13:37:26;42.75;35.25;28.00
77239;PMS7003;66258;53.170;-2.240;2023-09-19T13:39:53;43.25;37.75;29.75
77239;PMS7003;66258;53.170;-2.240;2023-09-19T13:42:20;67.00;47.80;32.40
77239;PMS7003;66258;53.170;-2.240;2023-09-19T13:44:48;45.50;39.25;30.50
77239;PMS7003;66258;53.170;-2.240;2023-09-19T13:47:15;49.25;42.25;34.25
77239;PMS7003;66258;53.170;-2.240;2023-09-19T13:49:44;40.50;32.00;25.00
77239;PMS7003;66258;53.170;-2.240;2023-09-19T13:52:11;196.80;188.00;174.80
77239;PMS7003;66258;53.170;-2.240;2023-09-19T13:55:01;51.00;42.25;33.25
77239;PMS7003;66258;53.170;-2.240;2023-09-19T13:57:52;290.25;283.25;274.50
77239;PMS7003;66258;53.170;-2.240;2023-09-19T14:00:19;37.25;34.00;27.75
77239;PMS7003;66258;53.170;-2.240;2023-09-19T14:02:47;21.67;21.67;19.33
77239;PMS7003;66258;53.170;-2.240;2023-09-19T14:05:16;23.40;19.60;15.00
77239;PMS7003;66258;53.170;-2.240;2023-09-19T14:07:43;76.40;63.80;47.80
77239;PMS7003;66258;53.170;-2.240;2023-09-19T14:10:10;56.60;46.80;37.20
77239;PMS7003;66258;53.170;-2.240;2023-09-19T14:12:38;44.00;31.50;21.75
77239;PMS7003;66258;53.170;-2.240;2023-09-19T14:15:29;21.75;20.00;17.75
77239;PMS7003;66258;53.170;-2.240;2023-09-19T14:17:57;27.25;27.00;21.75
77239;PMS7003;66258;53.170;-2.240;2023-09-19T14:20:27;49.00;39.00;29.75
77239;PMS7003;66258;53.170;-2.240;2023-09-19T14:22:54;48.50;36.75;28.75
77239;PMS7003;66258;53.170;-2.240;2023-09-19T14:25:21;12.00;5.25;2.00
77239;PMS7003;66258;53.170;-2.240;2023-09-19T14:27:50;34.75;28.00;19.50
77239;PMS7003;66258;53.170;-2.240;2023-09-19T14:30:17;26.50;26.50;21.00
77239;PMS7003;66258;53.170;-2.240;2023-09-19T14:32:45;25.50;22.75;18.75
77239;PMS7003;66258;53.170;-2.240;2023-09-19T14:35:12;13.00;13.00;11.50
77239;PMS7003;66258;53.170;-2.240;2023-09-19T14:37:40;24.67;24.67;21.33
77239;PMS7003;66258;53.170;-2.240;2023-09-19T14:40:09;45.25;38.00;30.50
77239;PMS7003;66258;53.170;-2.240;2023-09-19T14:42:38;31.25;29.00;20.75
77239;PMS7003;66258;53.170;-2.240;2023-09-19T14:45:07;40.00;34.25;25.00
77239;PMS7003;66258;53.170;-2.240;2023-09-19T14:47:34;25.75;24.75;20.00
77239;PMS7003;66258;53.170;-2.240;2023-09-19T14:50:01;106.20;100.20;93.20
77239;PMS7003;66258;53.170;-2.240;2023-09-19T14:52:29;18.75;18.50;13.50
77239;PMS7003;66258;53.170;-2.240;2023-09-19T14:54:57;76.80;67.00;63.40
77239;PMS7003;66258;53.170;-2.240;2023-09-19T14:57:24;10.50;9.00;8.75
77239;PMS7003;66258;53.170;-2.240;2023-09-19T14:59:51;3.50;2.75;0.00
77239;PMS7003;66258;53.170;-2.240;2023-09-19T15:02:18;37.00;32.50;25.25
77239;PMS7003;66258;53.170;-2.240;2023-09-19T15:04:46;17.67;14.33;10.67
77239;PMS7003;66258;53.170;-2.240;2023-09-19T15:07:17;694.25;691.25;688.50
77239;PMS7003;66258;53.170;-2.240;2023-09-19T15:09:44;33.00;30.50;23.00
77239;PMS7003;66258;53.170;-2.240;2023-09-19T15:12:13;141.00;132.00;121.20
77239;PMS7003;66258;53.170;-2.240;2023-09-19T15:14:40;52.00;43.00;32.50
77239;PMS7003;66258;53.170;-2.240;2023-09-19T15:17:07;17.00;17.00;12.25
77239;PMS7003;66258;53.170;-2.240;2023-09-19T15:19:34;56.67;42.67;33.33
77239;PMS7003;66258;53.170;-2.240;2023-09-19T15:22:02;28.75;28.00;22.50
77239;PMS7003;66258;53.170;-2.240;2023-09-19T15:24:54;25.50;24.25;19.75
77239;PMS7003;66258;53.170;-2.240;2023-09-19T15:27:46;22.33;22.33;19.67
77239;PMS7003;66258;53.170;-2.240;2023-09-19T15:30:14;18.25;16.00;14.25
77239;PMS7003;66258;53.170;-2.240;2023-09-19T15:32:41;25.75;25.75;21.75
77239;PMS7003;66258;53.170;-2.240;2023-09-19T15:35:09;47.00;37.75;30.50
77239;PMS7003;66258;53.170;-2.240;2023-09-19T15:37:36;49.00;40.50;31.25
77239;PMS7003;66258;53.170;-2.240;2023-09-19T15:40:04;15.25;12.25;8.75
77239;PMS7003;66258;53.170;-2.240;2023-09-19T15:42:33;37.75;32.00;23.50
77239;PMS7003;66258;53.170;-2.240;2023-09-19T15:45:26;39.75;34.25;26.50
77239;PMS7003;66258;53.170;-2.240;2023-09-19T15:47:57;14.75;14.75;12.75
77239;PMS7003;66258;53.170;-2.240;2023-09-19T15:50:24;29.50;29.00;24.50
77239;PMS7003;66258;53.170;-2.240;2023-09-19T15:52:52;15.25;14.25;13.00